createdAt,value
2023-05-09T00:00:16.149Z,26.86
2023-05-09T00:01:16.145Z,26.88
2023-05-09T00:02:16.265Z,26.86
2023-05-09T00:03:16.284Z,26.88
2023-05-09T00:04:16.229Z,26.86
2023-05-09T00:05:16.568Z,26.86
2023-05-09T00:06:16.317Z,26.86
2023-05-09T00:07:16.213Z,26.86
2023-05-09T00:08:16.259Z,26.88
2023-05-09T00:09:16.255Z,26.86
2023-05-09T00:10:16.313Z,26.86
2023-05-09T00:11:16.321Z,26.86
2023-05-09T00:12:16.334Z,26.88
2023-05-09T00:13:16.396Z,26.88
2023-05-09T00:14:16.337Z,26.86
2023-05-09T00:15:16.478Z,26.83
2023-05-09T00:16:16.439Z,26.85
2023-05-09T00:17:16.398Z,26.85
2023-05-09T00:18:16.458Z,26.88
2023-05-09T00:19:16.452Z,26.85
2023-05-09T00:20:16.478Z,26.85
2023-05-09T00:21:16.494Z,26.86
2023-05-09T00:22:16.584Z,26.85
2023-05-09T00:23:16.499Z,26.86
2023-05-09T00:24:16.499Z,26.83
2023-05-09T00:25:16.783Z,26.85
2023-05-09T00:26:16.553Z,26.86
2023-05-09T00:27:18.353Z,26.83
2023-05-09T00:28:16.605Z,26.83
2023-05-09T00:29:16.586Z,26.86
2023-05-09T00:30:16.582Z,26.85
2023-05-09T00:31:16.645Z,26.86
2023-05-09T00:32:16.789Z,26.85
2023-05-09T00:33:16.652Z,26.85
2023-05-09T00:34:16.650Z,26.85
2023-05-09T00:35:16.825Z,26.83
2023-05-09T00:36:16.681Z,26.82
2023-05-09T00:37:16.739Z,26.83
2023-05-09T00:38:16.846Z,26.83
2023-05-09T00:39:16.742Z,26.85
2023-05-09T00:40:16.799Z,26.85
2023-05-09T00:41:16.793Z,26.85
2023-05-09T00:42:16.799Z,26.85
2023-05-09T00:43:16.845Z,26.85
2023-05-09T00:44:16.848Z,26.86
2023-05-09T00:45:16.909Z,26.83
2023-05-09T00:46:16.957Z,26.85
2023-05-09T00:47:16.898Z,26.82
2023-05-09T00:48:16.974Z,26.82
2023-05-09T00:49:16.948Z,26.82
2023-05-09T00:50:16.953Z,26.82
2023-05-09T00:51:16.997Z,26.83
2023-05-09T00:52:16.992Z,26.83
2023-05-09T00:53:17.016Z,26.83
2023-05-09T00:54:17.139Z,26.83
2023-05-09T00:55:17.046Z,26.85
2023-05-09T00:56:17.077Z,26.82
2023-05-09T00:57:17.093Z,26.85
2023-05-09T00:58:17.120Z,26.82
2023-05-09T00:59:17.631Z,26.82
2023-05-09T01:00:17.153Z,26.81
2023-05-09T01:01:17.206Z,26.82
2023-05-09T01:02:17.223Z,26.82
2023-05-09T01:03:17.309Z,26.81
2023-05-09T01:04:17.230Z,26.83
2023-05-09T01:05:17.410Z,26.82
2023-05-09T01:06:17.276Z,26.82
2023-05-09T01:07:17.325Z,26.82
2023-05-09T01:08:17.320Z,26.85
2023-05-09T01:09:17.329Z,26.81
2023-05-09T01:10:17.447Z,26.82
2023-05-09T01:11:17.358Z,26.79
2023-05-09T01:12:17.424Z,26.81
2023-05-09T01:13:17.528Z,26.82
2023-05-09T01:14:17.482Z,26.81
2023-05-09T01:15:17.455Z,26.79
2023-05-09T01:16:17.581Z,26.79
2023-05-09T01:17:17.519Z,26.82
2023-05-09T01:18:17.553Z,26.82
2023-05-09T01:19:17.539Z,26.82
2023-05-09T01:20:17.573Z,26.78
2023-05-09T01:21:17.611Z,26.81
2023-05-09T01:22:17.593Z,26.79
2023-05-09T01:23:17.636Z,26.82
2023-05-09T01:24:17.641Z,26.79
2023-05-09T01:25:17.635Z,26.82
2023-05-09T01:26:17.732Z,26.82
2023-05-09T01:27:17.673Z,26.82
2023-05-09T01:28:17.677Z,26.81
2023-05-09T01:29:17.701Z,26.82
2023-05-09T01:30:17.721Z,26.81
2023-05-09T01:31:17.792Z,26.81
2023-05-09T01:32:17.733Z,26.79
2023-05-09T01:33:17.766Z,26.81
2023-05-09T01:34:17.774Z,26.81
2023-05-09T01:35:17.772Z,26.81
2023-05-09T01:36:17.785Z,26.79
2023-05-09T01:37:17.809Z,26.82
2023-05-09T01:38:17.820Z,26.81
2023-05-09T01:39:17.841Z,26.81
2023-05-09T01:40:17.829Z,26.79
2023-05-09T01:41:17.862Z,26.82
2023-05-09T01:42:17.954Z,26.81
2023-05-09T01:43:17.891Z,26.79
2023-05-09T01:44:17.938Z,26.78
2023-05-09T01:45:18.048Z,26.79
2023-05-09T01:46:17.951Z,26.81
2023-05-09T01:47:17.935Z,26.81
2023-05-09T01:48:17.975Z,26.81
2023-05-09T01:49:17.992Z,26.79
2023-05-09T01:50:18.032Z,26.81
2023-05-09T01:51:18.017Z,26.83
2023-05-09T01:52:18.048Z,26.82
2023-05-09T01:53:18.065Z,26.79
2023-05-09T01:54:18.049Z,26.81
2023-05-09T01:55:18.086Z,26.79
2023-05-09T01:56:18.088Z,26.79
2023-05-09T01:57:18.108Z,26.81
2023-05-09T01:58:18.249Z,26.79
2023-05-09T01:59:18.141Z,26.78
2023-05-09T02:00:18.176Z,26.81
2023-05-09T02:01:18.236Z,26.79
2023-05-09T02:02:18.227Z,26.79
2023-05-09T02:03:18.247Z,26.81
2023-05-09T02:04:18.244Z,26.78
2023-05-09T02:05:18.267Z,26.78
2023-05-09T02:06:18.274Z,26.79
2023-05-09T02:07:18.262Z,26.79
2023-05-09T02:08:18.258Z,26.78
2023-05-09T02:09:18.284Z,26.78
2023-05-09T02:10:18.278Z,26.79
2023-05-09T02:11:18.336Z,26.81
2023-05-09T02:12:18.372Z,26.78
2023-05-09T02:13:18.494Z,26.78
2023-05-09T02:14:18.488Z,26.79
2023-05-09T02:15:18.432Z,26.78
2023-05-09T02:16:20.040Z,26.78
2023-05-09T02:17:18.444Z,26.78
2023-05-09T02:18:18.465Z,26.78
2023-05-09T02:19:18.487Z,26.78
2023-05-09T02:20:18.494Z,26.79
2023-05-09T02:21:18.488Z,26.78
2023-05-09T02:22:18.515Z,26.78
2023-05-09T02:23:18.588Z,26.78
2023-05-09T02:24:18.578Z,26.79
2023-05-09T02:25:18.599Z,26.79
2023-05-09T02:26:18.619Z,26.78
2023-05-09T02:27:18.642Z,26.78
2023-05-09T02:28:18.647Z,26.78
2023-05-09T02:29:18.680Z,26.81
2023-05-09T02:30:18.811Z,26.77
2023-05-09T02:31:18.725Z,26.77
2023-05-09T02:32:18.736Z,26.77
2023-05-09T02:33:18.758Z,26.79
2023-05-09T02:34:18.784Z,26.78
2023-05-09T02:35:18.824Z,26.75
2023-05-09T02:36:18.809Z,26.77
2023-05-09T02:37:18.831Z,26.77
2023-05-09T02:38:18.853Z,26.81
2023-05-09T02:39:18.887Z,26.78
2023-05-09T02:40:18.904Z,26.77
2023-05-09T02:41:18.939Z,26.79
2023-05-09T02:42:18.912Z,26.77
2023-05-09T02:43:18.957Z,26.77
2023-05-09T02:44:18.962Z,26.77
2023-05-09T02:45:19.016Z,26.78
2023-05-09T02:46:19.150Z,26.75
2023-05-09T02:47:19.010Z,26.77
2023-05-09T02:48:19.053Z,26.78
2023-05-09T02:49:31.466Z,26.78
2023-05-09T02:50:20.063Z,26.77
2023-05-09T02:51:19.061Z,26.78
2023-05-09T02:52:19.061Z,26.74
2023-05-09T02:53:19.070Z,26.77
2023-05-09T02:54:19.019Z,26.75
2023-05-09T02:55:19.040Z,26.75
2023-05-09T02:56:18.988Z,26.77
2023-05-09T02:57:19.020Z,26.75
2023-05-09T02:58:19.391Z,26.74
2023-05-09T02:59:18.997Z,26.77
2023-05-09T03:00:18.959Z,26.77
2023-05-09T03:01:19.039Z,26.77
2023-05-09T03:02:19.156Z,26.78
2023-05-09T03:03:19.105Z,26.77
2023-05-09T03:04:18.932Z,26.75
2023-05-09T03:05:18.978Z,26.74
2023-05-09T03:06:18.972Z,26.74
2023-05-09T03:07:18.938Z,26.75
2023-05-09T03:08:18.937Z,26.78
2023-05-09T03:09:18.979Z,26.78
2023-05-09T03:10:19.026Z,26.77
2023-05-09T03:11:19.000Z,26.77
2023-05-09T03:12:19.027Z,26.75
2023-05-09T03:13:19.111Z,26.74
2023-05-09T03:14:19.095Z,26.77
2023-05-09T03:15:19.137Z,26.75
2023-05-09T03:16:19.198Z,26.78
2023-05-09T03:17:19.153Z,26.74
2023-05-09T03:18:19.282Z,26.77
2023-05-09T03:19:19.216Z,26.75
2023-05-09T03:20:19.243Z,26.75
2023-05-09T03:21:19.262Z,26.74
2023-05-09T03:22:19.293Z,26.74
2023-05-09T03:23:19.324Z,26.75
2023-05-09T03:24:19.323Z,26.74
2023-05-09T03:25:19.369Z,26.74
2023-05-09T03:26:19.365Z,26.75
2023-05-09T03:27:19.407Z,26.75
2023-05-09T03:28:19.445Z,26.77
2023-05-09T03:29:19.440Z,26.74
2023-05-09T03:30:19.466Z,26.77
2023-05-09T03:31:19.510Z,26.75
2023-05-09T03:32:19.543Z,26.74
2023-05-09T03:33:19.542Z,26.75
2023-05-09T03:34:19.667Z,26.74
2023-05-09T03:35:19.604Z,26.77
2023-05-09T03:36:19.648Z,26.74
2023-05-09T03:37:19.667Z,26.75
2023-05-09T03:38:19.712Z,26.74
2023-05-09T03:39:19.709Z,26.74
2023-05-09T03:40:19.725Z,26.75
2023-05-09T03:41:19.744Z,26.78
2023-05-09T03:42:19.791Z,26.74
2023-05-09T03:43:19.818Z,26.72
2023-05-09T03:44:19.850Z,26.75
2023-05-09T03:45:19.850Z,26.77
2023-05-09T03:46:19.882Z,26.74
2023-05-09T03:47:19.869Z,26.74
2023-05-09T03:48:19.890Z,26.72
2023-05-09T03:49:19.944Z,26.75
2023-05-09T03:50:20.074Z,26.75
2023-05-09T03:51:19.997Z,26.75
2023-05-09T03:52:20.025Z,26.74
2023-05-09T03:53:20.077Z,26.75
2023-05-09T03:54:20.042Z,26.75
2023-05-09T03:55:20.093Z,26.74
2023-05-09T03:56:20.107Z,26.72
2023-05-09T03:57:20.121Z,26.75
2023-05-09T03:58:20.187Z,26.72
2023-05-09T03:59:20.213Z,26.72
2023-05-09T04:00:20.215Z,26.74
2023-05-09T04:01:20.224Z,26.74
2023-05-09T04:02:20.335Z,26.72
2023-05-09T04:03:20.334Z,26.72
2023-05-09T04:04:20.322Z,26.72
2023-05-09T04:05:20.326Z,26.75
2023-05-09T04:06:20.432Z,26.72
2023-05-09T04:07:20.384Z,26.75
2023-05-09T04:08:20.376Z,26.72
2023-05-09T04:09:20.418Z,26.72
2023-05-09T04:10:20.451Z,26.74
2023-05-09T04:11:20.473Z,26.74
2023-05-09T04:12:20.509Z,26.74
2023-05-09T04:13:20.571Z,26.75
2023-05-09T04:14:20.542Z,26.72
2023-05-09T04:15:20.553Z,26.72
2023-05-09T04:16:20.618Z,26.72
2023-05-09T04:17:20.635Z,26.74
2023-05-09T04:18:20.655Z,26.72
2023-05-09T04:19:20.660Z,26.72
2023-05-09T04:20:20.710Z,26.74
2023-05-09T04:21:20.713Z,26.71
2023-05-09T04:22:20.833Z,26.72
2023-05-09T04:23:20.763Z,26.72
2023-05-09T04:24:20.817Z,26.74
2023-05-09T04:25:20.824Z,26.75
2023-05-09T04:26:20.842Z,26.74
2023-05-09T04:27:20.869Z,26.72
2023-05-09T04:28:20.910Z,26.71
2023-05-09T04:29:20.928Z,26.72
2023-05-09T04:30:20.981Z,26.71
2023-05-09T04:31:20.992Z,26.72
2023-05-09T04:32:21.000Z,26.72
2023-05-09T04:33:21.012Z,26.71
2023-05-09T04:34:21.006Z,26.72
2023-05-09T04:35:21.349Z,26.74
2023-05-09T04:36:21.072Z,26.71
2023-05-09T04:37:21.087Z,26.71
2023-05-09T04:38:21.240Z,26.71
2023-05-09T04:39:21.148Z,26.74
2023-05-09T04:40:21.184Z,26.72
2023-05-09T04:41:21.189Z,26.71
2023-05-09T04:42:21.234Z,26.72
2023-05-09T04:43:21.238Z,26.74
2023-05-09T04:44:21.265Z,26.72
2023-05-09T04:45:21.273Z,26.71
2023-05-09T04:46:23.133Z,26.72
2023-05-09T04:47:21.302Z,26.69
2023-05-09T04:48:21.329Z,26.72
2023-05-09T04:49:21.303Z,26.74
2023-05-09T04:50:21.296Z,26.71
2023-05-09T04:51:21.307Z,26.72
2023-05-09T04:52:21.296Z,26.74
2023-05-09T04:53:21.256Z,26.72
2023-05-09T04:54:21.373Z,26.71
2023-05-09T04:55:21.283Z,26.72
2023-05-09T04:56:21.250Z,26.72
2023-05-09T04:57:21.227Z,26.71
2023-05-09T04:58:21.244Z,26.68
2023-05-09T04:59:21.235Z,26.69
2023-05-09T05:00:21.272Z,26.71
2023-05-09T05:01:21.291Z,26.72
2023-05-09T05:02:21.248Z,26.71
2023-05-09T05:03:21.247Z,26.74
2023-05-09T05:04:21.273Z,26.69
2023-05-09T05:05:24.744Z,26.72
2023-05-09T05:06:21.186Z,26.72
2023-05-09T05:07:21.183Z,26.72
2023-05-09T05:08:21.154Z,26.71
2023-05-09T05:09:21.153Z,26.72
2023-05-09T05:10:21.275Z,26.72
2023-05-09T05:11:21.170Z,26.69
2023-05-09T05:12:21.152Z,26.74
2023-05-09T05:13:21.276Z,26.74
2023-05-09T05:14:21.156Z,26.74
2023-05-09T05:15:21.128Z,26.71
2023-05-09T05:16:21.169Z,26.74
2023-05-09T05:17:21.137Z,26.71
2023-05-09T05:18:21.100Z,26.72
2023-05-09T05:19:21.122Z,26.72
2023-05-09T05:20:21.114Z,26.71
2023-05-09T05:21:21.175Z,26.74
2023-05-09T05:22:21.089Z,26.72
2023-05-09T05:23:21.058Z,26.71
2023-05-09T05:24:21.097Z,26.75
2023-05-09T05:25:21.068Z,26.74
2023-05-09T05:26:21.144Z,26.74
2023-05-09T05:27:21.060Z,26.75
2023-05-09T05:28:21.024Z,26.74
2023-05-09T05:29:21.050Z,26.72
2023-05-09T05:30:21.046Z,26.74
2023-05-09T05:31:21.031Z,26.74
2023-05-09T05:32:21.027Z,26.75
2023-05-09T05:33:20.998Z,26.75
2023-05-09T05:34:21.002Z,26.75
2023-05-09T05:35:21.007Z,26.75
2023-05-09T05:36:21.000Z,26.77
2023-05-09T05:37:20.999Z,26.75
2023-05-09T05:38:20.980Z,26.75
2023-05-09T05:39:21.427Z,26.77
2023-05-09T05:40:20.942Z,26.77
2023-05-09T05:41:20.977Z,26.78
2023-05-09T05:42:21.060Z,26.77
2023-05-09T05:43:20.992Z,26.79
2023-05-09T05:44:21.462Z,26.79
2023-05-09T05:45:21.012Z,26.81
2023-05-09T05:46:21.078Z,26.81
2023-05-09T05:47:21.050Z,26.81
2023-05-09T05:48:21.066Z,26.82
2023-05-09T05:49:21.144Z,26.78
2023-05-09T05:50:21.183Z,26.75
2023-05-09T05:51:21.168Z,26.72
2023-05-09T05:52:21.205Z,26.68
2023-05-09T05:53:21.267Z,26.65
2023-05-09T05:54:21.446Z,26.62
2023-05-09T05:55:21.345Z,26.59
2023-05-09T05:56:21.370Z,26.59
2023-05-09T05:57:21.415Z,26.59
2023-05-09T05:58:21.512Z,26.58
2023-05-09T05:59:21.455Z,26.61
2023-05-09T06:00:21.510Z,26.62
2023-05-09T06:01:21.541Z,26.65
2023-05-09T06:02:21.555Z,26.65
2023-05-09T06:03:21.672Z,26.71
2023-05-09T06:04:21.699Z,26.72
2023-05-09T06:05:21.642Z,26.77
2023-05-09T06:06:21.644Z,26.78
2023-05-09T06:07:21.673Z,26.79
2023-05-09T06:08:21.671Z,26.83
2023-05-09T06:09:21.730Z,26.88
2023-05-09T06:10:21.715Z,26.89
2023-05-09T06:11:21.738Z,26.92
2023-05-09T06:12:21.710Z,26.96
2023-05-09T06:13:21.835Z,26.96
2023-05-09T06:14:21.827Z,26.99
2023-05-09T06:15:21.734Z,27.03
2023-05-09T06:16:21.803Z,27.05
2023-05-09T06:17:22.065Z,27.07
2023-05-09T06:18:21.760Z,27.07
2023-05-09T06:19:21.701Z,27.11
2023-05-09T06:20:21.704Z,27.14
2023-05-09T06:21:21.720Z,27.16
2023-05-09T06:22:21.726Z,27.18
2023-05-09T06:23:21.744Z,27.18
2023-05-09T06:24:34.414Z,27.20
2023-05-09T06:25:22.776Z,27.20
2023-05-09T06:26:21.753Z,27.23
2023-05-09T06:27:21.707Z,27.26
2023-05-09T06:28:21.735Z,27.26
2023-05-09T06:29:21.717Z,27.30
2023-05-09T06:30:26.120Z,27.32
2023-05-09T06:31:24.220Z,27.34
2023-05-09T06:32:21.695Z,27.33
2023-05-09T06:33:21.694Z,27.36
2023-05-09T06:34:21.663Z,27.37
2023-05-09T06:35:21.806Z,27.40
2023-05-09T06:36:21.692Z,27.41
2023-05-09T06:37:21.689Z,27.43
2023-05-09T06:38:21.655Z,27.44
2023-05-09T06:39:21.981Z,27.44
2023-05-09T06:40:21.651Z,27.47
2023-05-09T06:41:21.647Z,27.47
2023-05-09T06:42:21.656Z,27.48
2023-05-09T06:43:21.633Z,27.47
2023-05-09T06:44:21.642Z,27.50
2023-05-09T06:45:21.895Z,27.51
2023-05-09T06:46:21.753Z,27.51
2023-05-09T06:47:21.594Z,27.48
2023-05-09T06:48:21.639Z,27.53
2023-05-09T06:49:21.973Z,27.53
2023-05-09T06:50:21.576Z,27.54
2023-05-09T06:51:21.602Z,27.48
2023-05-09T06:52:21.586Z,27.48
2023-05-09T06:53:21.586Z,27.44
2023-05-09T06:54:21.547Z,27.44
2023-05-09T06:55:21.551Z,27.43
2023-05-09T06:56:21.539Z,27.43
2023-05-09T06:57:21.561Z,27.41
2023-05-09T06:58:21.541Z,27.41
2023-05-09T06:59:21.545Z,27.41
2023-05-09T07:00:21.564Z,27.40
2023-05-09T07:01:21.637Z,27.40
2023-05-09T07:02:21.742Z,27.41
2023-05-09T07:03:21.670Z,27.40
2023-05-09T07:04:21.784Z,27.40
2023-05-09T07:05:21.901Z,27.40
2023-05-09T07:06:21.883Z,27.43
2023-05-09T07:07:21.932Z,27.43
2023-05-09T07:08:21.971Z,27.45
2023-05-09T07:09:22.077Z,27.45
2023-05-09T07:10:22.105Z,27.45
2023-05-09T07:11:22.165Z,27.44
2023-05-09T07:12:22.209Z,27.43
2023-05-09T07:13:22.279Z,27.43
2023-05-09T07:14:22.309Z,27.41
2023-05-09T07:15:32.978Z,27.40
2023-05-09T07:16:23.384Z,27.40
2023-05-09T07:17:23.911Z,27.38
2023-05-09T07:18:22.352Z,27.37
2023-05-09T07:19:22.282Z,27.36
2023-05-09T07:20:22.284Z,27.37
2023-05-09T07:21:22.258Z,27.36
2023-05-09T07:22:22.284Z,27.36
2023-05-09T07:23:22.264Z,27.34
2023-05-09T07:24:22.248Z,27.34
2023-05-09T07:25:22.240Z,27.33
2023-05-09T07:26:22.244Z,27.34
2023-05-09T07:27:22.209Z,27.32
2023-05-09T07:28:22.213Z,27.32
2023-05-09T07:29:22.220Z,27.32
2023-05-09T07:30:22.201Z,27.30
2023-05-09T07:31:22.249Z,27.30
2023-05-09T07:32:22.227Z,27.29
2023-05-09T07:33:22.250Z,27.32
2023-05-09T07:34:22.337Z,27.29
2023-05-09T07:35:22.281Z,27.32
2023-05-09T07:36:22.325Z,27.32
2023-05-09T07:37:22.328Z,27.32
2023-05-09T07:38:22.414Z,27.30
2023-05-09T07:39:22.461Z,27.34
2023-05-09T07:40:22.542Z,27.34
2023-05-09T07:41:22.584Z,27.30
2023-05-09T07:42:22.691Z,27.32
2023-05-09T07:43:22.692Z,27.33
2023-05-09T07:44:22.992Z,27.37
2023-05-09T07:45:23.837Z,27.41
2023-05-09T07:46:22.956Z,27.38
2023-05-09T07:47:22.938Z,27.43
2023-05-09T07:48:22.992Z,27.44
2023-05-09T07:49:23.506Z,27.45
2023-05-09T07:50:23.164Z,27.50
2023-05-09T07:51:23.153Z,27.51
2023-05-09T07:52:23.188Z,27.47
2023-05-09T07:53:23.257Z,27.51
2023-05-09T07:54:23.294Z,27.51
2023-05-09T07:55:23.385Z,27.54
2023-05-09T07:56:23.401Z,27.55
2023-05-09T07:57:23.457Z,27.55
2023-05-09T07:58:23.492Z,27.55
2023-05-09T07:59:23.549Z,27.57
2023-05-09T08:00:23.753Z,27.61
2023-05-09T08:01:23.661Z,27.62
2023-05-09T08:02:23.728Z,27.64
2023-05-09T08:03:23.848Z,27.65
2023-05-09T08:04:23.801Z,27.66
2023-05-09T08:05:23.844Z,27.66
2023-05-09T08:06:24.028Z,27.69
2023-05-09T08:07:23.949Z,27.68
2023-05-09T08:08:23.981Z,27.69
2023-05-09T08:09:24.042Z,27.69
2023-05-09T08:10:24.163Z,27.69
2023-05-09T08:11:24.129Z,27.72
2023-05-09T08:12:24.172Z,27.72
2023-05-09T08:13:24.296Z,27.71
2023-05-09T08:14:24.252Z,27.72
2023-05-09T08:15:24.313Z,27.71
2023-05-09T08:16:24.367Z,27.72
2023-05-09T08:17:24.407Z,27.73
2023-05-09T08:18:24.454Z,27.73
2023-05-09T08:19:24.525Z,27.75
2023-05-09T08:20:24.552Z,27.75
2023-05-09T08:21:24.589Z,27.77
2023-05-09T08:22:24.634Z,27.77
2023-05-09T08:23:24.661Z,27.78
2023-05-09T08:24:24.694Z,27.78
2023-05-09T08:25:24.711Z,27.80
2023-05-09T08:26:24.795Z,27.81
2023-05-09T08:27:24.791Z,27.80
2023-05-09T08:28:24.874Z,27.81
2023-05-09T08:29:24.908Z,27.81
2023-05-09T08:30:24.905Z,27.87
2023-05-09T08:31:25.002Z,27.82
2023-05-09T08:32:25.024Z,27.87
